Terminal Aerodrome Forecast
Issued by NWS

Home | Current Version | Previous Version | Graphics & Text | Print | Product List | Glossary On
Versions: 1 2 3 4 5 6 7 8 9 10 11 12 13 14 15 16 17 18 19 20 21 22
000
FTUS43 KMPX 062336
TAFAXN
TAF
KAXN 062336Z 0700/0724 34012G20KT P6SM FEW050
     FM070300 34006KT P6SM SKC
     FM071400 36005KT 6SM FU FEW040
     FM071800 VRB04KT 6SM FU FEW040=

USA.gov is the U.S. government's official web portal to all federal, state and local government web resources and services.